sensor_id;sensor_type;location;lat;lon;timestamp;P1;durP1;ratioP1;P2;durP2;ratioP2
71080;SDS011;58740;50.672;18.690;2023-01-16T00:01:59;9.60;;;4.20;;
71080;SDS011;58740;50.672;18.690;2023-01-16T00:04:28;10.40;;;4.90;;
71080;SDS011;58740;50.672;18.690;2023-01-16T00:06:55;9.90;;;4.70;;
71080;SDS011;58740;50.672;18.690;2023-01-16T00:09:23;9.90;;;5.10;;
71080;SDS011;58740;50.672;18.690;2023-01-16T00:11:51;11.40;;;5.90;;
71080;SDS011;58740;50.672;18.690;2023-01-16T00:14:18;9.00;;;4.90;;
71080;SDS011;58740;50.672;18.690;2023-01-16T00:16:46;9.80;;;3.90;;
71080;SDS011;58740;50.672;18.690;2023-01-16T00:19:14;7.80;;;4.00;;
71080;SDS011;58740;50.672;18.690;2023-01-16T00:21:42;10.80;;;5.50;;
71080;SDS011;58740;50.672;18.690;2023-01-16T00:24:11;15.70;;;8.90;;
71080;SDS011;58740;50.672;18.690;2023-01-16T00:26:39;18.00;;;9.20;;
71080;SDS011;58740;50.672;18.690;2023-01-16T00:29:06;16.60;;;7.80;;
71080;SDS011;58740;50.672;18.690;2023-01-16T00:31:34;15.30;;;8.30;;
71080;SDS011;58740;50.672;18.690;2023-01-16T00:34:02;18.60;;;9.40;;
71080;SDS011;58740;50.672;18.690;2023-01-16T00:36:30;16.20;;;9.20;;
71080;SDS011;58740;50.672;18.690;2023-01-16T00:38:57;13.80;;;7.80;;
71080;SDS011;58740;50.672;18.690;2023-01-16T00:41:25;14.70;;;7.70;;
71080;SDS011;58740;50.672;18.690;2023-01-16T00:43:53;13.50;;;7.20;;
71080;SDS011;58740;50.672;18.690;2023-01-16T00:46:26;13.30;;;7.00;;
71080;SDS011;58740;50.672;18.690;2023-01-16T00:48:57;12.00;;;6.90;;
71080;SDS011;58740;50.672;18.690;2023-01-16T00:51:24;13.40;;;7.50;;
71080;SDS011;58740;50.672;18.690;2023-01-16T00:53:52;11.80;;;6.70;;
71080;SDS011;58740;50.672;18.690;2023-01-16T00:56:20;13.10;;;6.90;;
71080;SDS011;58740;50.672;18.690;2023-01-16T00:58:48;14.80;;;8.10;;
71080;SDS011;58740;50.672;18.690;2023-01-16T01:01:16;14.60;;;7.50;;
71080;SDS011;58740;50.672;18.690;2023-01-16T01:03:45;14.40;;;7.70;;
71080;SDS011;58740;50.672;18.690;2023-01-16T01:06:13;18.70;;;7.70;;
71080;SDS011;58740;50.672;18.690;2023-01-16T01:08:40;13.90;;;7.10;;
71080;SDS011;58740;50.672;18.690;2023-01-16T01:11:13;13.90;;;7.40;;
71080;SDS011;58740;50.672;18.690;2023-01-16T01:13:42;12.10;;;6.70;;
71080;SDS011;58740;50.672;18.690;2023-01-16T01:16:11;13.70;;;6.70;;
71080;SDS011;58740;50.672;18.690;2023-01-16T01:18:40;12.10;;;6.20;;
71080;SDS011;58740;50.672;18.690;2023-01-16T01:21:09;10.90;;;6.20;;
71080;SDS011;58740;50.672;18.690;2023-01-16T01:23:37;10.80;;;5.70;;
71080;SDS011;58740;50.672;18.690;2023-01-16T01:26:10;12.10;;;5.80;;
71080;SDS011;58740;50.672;18.690;2023-01-16T01:28:40;14.40;;;6.20;;
71080;SDS011;58740;50.672;18.690;2023-01-16T01:31:11;14.30;;;6.20;;
71080;SDS011;58740;50.672;18.690;2023-01-16T01:33:40;10.00;;;5.30;;
71080;SDS011;58740;50.672;18.690;2023-01-16T01:36:08;12.70;;;5.80;;
71080;SDS011;58740;50.672;18.690;2023-01-16T01:38:37;14.50;;;6.20;;
71080;SDS011;58740;50.672;18.690;2023-01-16T01:41:05;11.20;;;6.40;;
71080;SDS011;58740;50.672;18.690;2023-01-16T01:43:48;13.40;;;5.90;;
71080;SDS011;58740;50.672;18.690;2023-01-16T01:46:41;11.90;;;5.70;;
71080;SDS011;58740;50.672;18.690;2023-01-16T01:49:24;9.70;;;5.40;;
71080;SDS011;58740;50.672;18.690;2023-01-16T01:51:58;11.60;;;5.40;;
71080;SDS011;58740;50.672;18.690;2023-01-16T01:54:34;10.60;;;5.30;;
71080;SDS011;58740;50.672;18.690;2023-01-16T01:57:18;13.10;;;5.90;;
71080;SDS011;58740;50.672;18.690;2023-01-16T02:00:02;11.40;;;5.70;;
71080;SDS011;58740;50.672;18.690;2023-01-16T02:02:43;13.60;;;6.60;;
71080;SDS011;58740;50.672;18.690;2023-01-16T02:05:28;13.70;;;7.50;;
71080;SDS011;58740;50.672;18.690;2023-01-16T02:08:01;10.90;;;5.50;;
71080;SDS011;58740;50.672;18.690;2023-01-16T02:10:42;10.90;;;5.50;;
71080;SDS011;58740;50.672;18.690;2023-01-16T02:13:12;9.40;;;4.60;;
71080;SDS011;58740;50.672;18.690;2023-01-16T02:15:40;11.80;;;5.90;;
71080;SDS011;58740;50.672;18.690;2023-01-16T02:18:29;9.40;;;5.30;;
71080;SDS011;58740;50.672;18.690;2023-01-16T02:36:35;12.30;;;5.90;;
71080;SDS011;58740;50.672;18.690;2023-01-16T02:45:29;12.00;;;5.50;;
71080;SDS011;58740;50.672;18.690;2023-01-16T02:48:28;11.50;;;5.70;;
71080;SDS011;58740;50.672;18.690;2023-01-16T02:51:36;9.60;;;5.20;;
71080;SDS011;58740;50.672;18.690;2023-01-16T02:54:17;10.50;;;6.20;;
71080;SDS011;58740;50.672;18.690;2023-01-16T02:59:36;13.50;;;6.80;;
71080;SDS011;58740;50.672;18.690;2023-01-16T03:02:04;12.00;;;6.20;;
71080;SDS011;58740;50.672;18.690;2023-01-16T03:04:53;11.10;;;6.00;;
71080;SDS011;58740;50.672;18.690;2023-01-16T03:07:30;12.40;;;6.30;;
71080;SDS011;58740;50.672;18.690;2023-01-16T03:10:18;16.00;;;7.40;;
71080;SDS011;58740;50.672;18.690;2023-01-16T03:19:03;10.70;;;5.00;;
71080;SDS011;58740;50.672;18.690;2023-01-16T03:21:53;11.60;;;6.20;;
71080;SDS011;58740;50.672;18.690;2023-01-16T03:28:07;13.80;;;7.50;;
71080;SDS011;58740;50.672;18.690;2023-01-16T03:30:46;13.90;;;7.00;;
71080;SDS011;58740;50.672;18.690;2023-01-16T03:33:32;14.20;;;6.80;;
71080;SDS011;58740;50.672;18.690;2023-01-16T03:36:16;11.50;;;6.10;;
71080;SDS011;58740;50.672;18.690;2023-01-16T03:38:53;15.00;;;7.70;;
71080;SDS011;58740;50.672;18.690;2023-01-16T03:41:25;12.40;;;6.30;;
71080;SDS011;58740;50.672;18.690;2023-01-16T03:44:00;15.90;;;7.00;;
71080;SDS011;58740;50.672;18.690;2023-01-16T03:46:39;15.10;;;7.90;;
71080;SDS011;58740;50.672;18.690;2023-01-16T03:49:17;16.60;;;8.10;;
71080;SDS011;58740;50.672;18.690;2023-01-16T03:51:57;14.60;;;7.10;;
71080;SDS011;58740;50.672;18.690;2023-01-16T03:54:53;13.00;;;7.50;;
71080;SDS011;58740;50.672;18.690;2023-01-16T03:57:40;14.50;;;7.60;;
71080;SDS011;58740;50.672;18.690;2023-01-16T04:00:12;13.80;;;7.10;;
71080;SDS011;58740;50.672;18.690;2023-01-16T04:02:51;15.10;;;6.60;;
71080;SDS011;58740;50.672;18.690;2023-01-16T04:05:36;13.90;;;7.20;;
71080;SDS011;58740;50.672;18.690;2023-01-16T04:08:19;12.10;;;6.30;;
71080;SDS011;58740;50.672;18.690;2023-01-16T04:10:56;11.30;;;6.30;;
71080;SDS011;58740;50.672;18.690;2023-01-16T04:13:28;13.90;;;7.00;;
71080;SDS011;58740;50.672;18.690;2023-01-16T04:16:04;16.90;;;8.70;;
71080;SDS011;58740;50.672;18.690;2023-01-16T04:18:37;18.30;;;9.60;;
71080;SDS011;58740;50.672;18.690;2023-01-16T04:21:06;17.60;;;9.20;;
71080;SDS011;58740;50.672;18.690;2023-01-16T04:23:35;14.20;;;8.50;;
71080;SDS011;58740;50.672;18.690;2023-01-16T04:26:03;17.70;;;9.00;;
71080;SDS011;58740;50.672;18.690;2023-01-16T04:28:31;18.50;;;10.00;;
71080;SDS011;58740;50.672;18.690;2023-01-16T04:30:59;17.70;;;8.90;;
71080;SDS011;58740;50.672;18.690;2023-01-16T04:33:27;16.70;;;8.50;;
71080;SDS011;58740;50.672;18.690;2023-01-16T04:35:55;16.90;;;9.70;;
71080;SDS011;58740;50.672;18.690;2023-01-16T04:38:22;20.80;;;11.40;;
71080;SDS011;58740;50.672;18.690;2023-01-16T04:40:53;20.10;;;10.60;;
71080;SDS011;58740;50.672;18.690;2023-01-16T04:43:21;18.60;;;9.60;;
71080;SDS011;58740;50.672;18.690;2023-01-16T04:45:49;23.70;;;11.40;;
71080;SDS011;58740;50.672;18.690;2023-01-16T04:48:17;19.80;;;11.00;;
71080;SDS011;58740;50.672;18.690;2023-01-16T04:50:48;18.60;;;10.20;;
71080;SDS011;58740;50.672;18.690;2023-01-16T04:53:16;19.10;;;10.20;;
71080;SDS011;58740;50.672;18.690;2023-01-16T04:55:44;20.60;;;10.60;;
71080;SDS011;58740;50.672;18.690;2023-01-16T04:58:12;23.50;;;13.30;;
71080;SDS011;58740;50.672;18.690;2023-01-16T05:00:40;24.20;;;11.90;;
71080;SDS011;58740;50.672;18.690;2023-01-16T05:03:07;19.00;;;11.00;;
71080;SDS011;58740;50.672;18.690;2023-01-16T05:05:37;20.60;;;10.10;;
71080;SDS011;58740;50.672;18.690;2023-01-16T05:08:05;22.90;;;11.50;;
71080;SDS011;58740;50.672;18.690;2023-01-16T05:10:46;14.40;;;8.80;;
71080;SDS011;58740;50.672;18.690;2023-01-16T05:13:14;18.10;;;11.20;;
71080;SDS011;58740;50.672;18.690;2023-01-16T05:15:43;20.20;;;11.20;;
71080;SDS011;58740;50.672;18.690;2023-01-16T05:18:12;22.40;;;11.50;;
71080;SDS011;58740;50.672;18.690;2023-01-16T05:20:40;21.20;;;10.40;;
71080;SDS011;58740;50.672;18.690;2023-01-16T05:23:08;18.00;;;10.10;;
71080;SDS011;58740;50.672;18.690;2023-01-16T05:25:39;17.20;;;8.40;;
71080;SDS011;58740;50.672;18.690;2023-01-16T05:28:07;17.60;;;9.40;;
71080;SDS011;58740;50.672;18.690;2023-01-16T05:30:35;16.70;;;7.60;;
71080;SDS011;58740;50.672;18.690;2023-01-16T05:33:03;17.00;;;7.80;;
71080;SDS011;58740;50.672;18.690;2023-01-16T05:35:32;13.50;;;6.90;;
71080;SDS011;58740;50.672;18.690;2023-01-16T05:38:00;18.70;;;10.10;;
71080;SDS011;58740;50.672;18.690;2023-01-16T05:40:27;18.70;;;9.30;;
71080;SDS011;58740;50.672;18.690;2023-01-16T05:42:55;22.40;;;9.90;;
71080;SDS011;58740;50.672;18.690;2023-01-16T05:45:23;19.40;;;9.10;;
71080;SDS011;58740;50.672;18.690;2023-01-16T05:47:51;18.40;;;8.60;;
71080;SDS011;58740;50.672;18.690;2023-01-16T05:50:19;18.20;;;8.40;;
71080;SDS011;58740;50.672;18.690;2023-01-16T05:52:46;20.60;;;10.30;;
71080;SDS011;58740;50.672;18.690;2023-01-16T05:55:14;16.30;;;8.80;;
71080;SDS011;58740;50.672;18.690;2023-01-16T05:57:43;19.40;;;9.60;;
71080;SDS011;58740;50.672;18.690;2023-01-16T06:00:11;19.40;;;11.00;;
71080;SDS011;58740;50.672;18.690;2023-01-16T06:02:40;25.50;;;12.50;;
71080;SDS011;58740;50.672;18.690;2023-01-16T06:05:08;26.90;;;13.70;;
71080;SDS011;58740;50.672;18.690;2023-01-16T06:07:36;23.00;;;12.40;;
71080;SDS011;58740;50.672;18.690;2023-01-16T06:10:05;22.30;;;11.70;;
71080;SDS011;58740;50.672;18.690;2023-01-16T06:12:33;20.10;;;11.80;;
71080;SDS011;58740;50.672;18.690;2023-01-16T06:15:01;17.30;;;9.70;;
71080;SDS011;58740;50.672;18.690;2023-01-16T06:17:29;12.70;;;7.40;;
71080;SDS011;58740;50.672;18.690;2023-01-16T06:19:57;18.30;;;9.70;;
71080;SDS011;58740;50.672;18.690;2023-01-16T06:22:26;21.30;;;10.50;;
71080;SDS011;58740;50.672;18.690;2023-01-16T06:24:54;24.70;;;12.20;;
71080;SDS011;58740;50.672;18.690;2023-01-16T06:27:22;22.10;;;11.30;;
71080;SDS011;58740;50.672;18.690;2023-01-16T06:29:50;16.40;;;9.50;;
71080;SDS011;58740;50.672;18.690;2023-01-16T06:32:18;19.80;;;10.70;;
71080;SDS011;58740;50.672;18.690;2023-01-16T06:34:46;22.50;;;12.20;;
71080;SDS011;58740;50.672;18.690;2023-01-16T06:37:13;19.80;;;12.00;;
71080;SDS011;58740;50.672;18.690;2023-01-16T06:39:41;19.90;;;10.90;;
71080;SDS011;58740;50.672;18.690;2023-01-16T06:42:09;23.80;;;12.70;;
71080;SDS011;58740;50.672;18.690;2023-01-16T06:44:36;27.10;;;14.90;;
71080;SDS011;58740;50.672;18.690;2023-01-16T06:47:04;30.70;;;16.00;;
71080;SDS011;58740;50.672;18.690;2023-01-16T06:49:34;27.40;;;15.40;;
71080;SDS011;58740;50.672;18.690;2023-01-16T06:52:02;31.00;;;18.00;;
71080;SDS011;58740;50.672;18.690;2023-01-16T06:54:29;22.50;;;12.80;;
71080;SDS011;58740;50.672;18.690;2023-01-16T06:56:57;25.50;;;13.80;;
71080;SDS011;58740;50.672;18.690;2023-01-16T06:59:25;24.10;;;13.30;;
71080;SDS011;58740;50.672;18.690;2023-01-16T07:01:53;23.20;;;13.00;;
71080;SDS011;58740;50.672;18.690;2023-01-16T07:04:21;26.30;;;13.20;;
71080;SDS011;58740;50.672;18.690;2023-01-16T07:06:49;24.50;;;13.30;;
71080;SDS011;58740;50.672;18.690;2023-01-16T07:09:18;31.20;;;16.60;;
71080;SDS011;58740;50.672;18.690;2023-01-16T07:11:46;32.20;;;17.20;;
71080;SDS011;58740;50.672;18.690;2023-01-16T07:14:15;27.20;;;14.30;;
71080;SDS011;58740;50.672;18.690;2023-01-16T07:17:02;27.60;;;13.90;;
71080;SDS011;58740;50.672;18.690;2023-01-16T07:19:48;25.70;;;14.50;;
71080;SDS011;58740;50.672;18.690;2023-01-16T07:22:35;24.40;;;13.10;;
71080;SDS011;58740;50.672;18.690;2023-01-16T07:25:32;16.90;;;10.60;;
71080;SDS011;58740;50.672;18.690;2023-01-16T07:28:02;23.10;;;13.20;;
71080;SDS011;58740;50.672;18.690;2023-01-16T07:30:30;26.40;;;14.30;;
71080;SDS011;58740;50.672;18.690;2023-01-16T07:32:58;29.10;;;16.20;;
71080;SDS011;58740;50.672;18.690;2023-01-16T07:35:26;24.10;;;13.00;;
71080;SDS011;58740;50.672;18.690;2023-01-16T07:37:54;26.20;;;13.60;;
71080;SDS011;58740;50.672;18.690;2023-01-16T07:40:24;24.50;;;12.60;;
71080;SDS011;58740;50.672;18.690;2023-01-16T07:42:52;24.70;;;12.60;;
71080;SDS011;58740;50.672;18.690;2023-01-16T07:45:19;21.90;;;11.80;;
71080;SDS011;58740;50.672;18.690;2023-01-16T07:47:47;24.00;;;13.10;;
71080;SDS011;58740;50.672;18.690;2023-01-16T07:50:15;27.90;;;12.90;;
71080;SDS011;58740;50.672;18.690;2023-01-16T07:52:43;28.60;;;15.50;;
71080;SDS011;58740;50.672;18.690;2023-01-16T07:55:13;28.40;;;16.30;;
71080;SDS011;58740;50.672;18.690;2023-01-16T07:57:42;25.90;;;13.30;;
71080;SDS011;58740;50.672;18.690;2023-01-16T08:00:11;21.80;;;12.20;;
71080;SDS011;58740;50.672;18.690;2023-01-16T08:02:41;20.00;;;10.30;;
71080;SDS011;58740;50.672;18.690;2023-01-16T08:05:10;19.60;;;11.50;;
71080;SDS011;58740;50.672;18.690;2023-01-16T08:07:38;18.80;;;10.70;;
71080;SDS011;58740;50.672;18.690;2023-01-16T08:10:06;19.90;;;10.40;;
71080;SDS011;58740;50.672;18.690;2023-01-16T08:12:34;18.70;;;9.80;;
71080;SDS011;58740;50.672;18.690;2023-01-16T08:15:06;17.70;;;9.50;;
71080;SDS011;58740;50.672;18.690;2023-01-16T08:17:37;22.50;;;12.40;;
71080;SDS011;58740;50.672;18.690;2023-01-16T08:20:08;24.70;;;12.20;;
71080;SDS011;58740;50.672;18.690;2023-01-16T08:22:44;23.10;;;12.20;;
71080;SDS011;58740;50.672;18.690;2023-01-16T08:25:13;21.10;;;11.00;;
71080;SDS011;58740;50.672;18.690;2023-01-16T08:27:42;18.40;;;9.50;;
71080;SDS011;58740;50.672;18.690;2023-01-16T08:30:11;20.50;;;10.30;;
71080;SDS011;58740;50.672;18.690;2023-01-16T08:32:41;21.60;;;9.10;;
71080;SDS011;58740;50.672;18.690;2023-01-16T08:35:10;22.00;;;11.50;;
71080;SDS011;58740;50.672;18.690;2023-01-16T08:37:38;21.10;;;11.50;;
71080;SDS011;58740;50.672;18.690;2023-01-16T08:40:06;18.80;;;10.00;;
71080;SDS011;58740;50.672;18.690;2023-01-16T08:42:35;24.00;;;13.10;;
71080;SDS011;58740;50.672;18.690;2023-01-16T08:45:21;24.70;;;13.00;;
71080;SDS011;58740;50.672;18.690;2023-01-16T08:48:09;24.30;;;11.00;;
71080;SDS011;58740;50.672;18.690;2023-01-16T08:50:56;26.30;;;14.40;;
71080;SDS011;58740;50.672;18.690;2023-01-16T08:53:43;20.80;;;10.30;;
71080;SDS011;58740;50.672;18.690;2023-01-16T08:56:11;20.40;;;11.30;;
71080;SDS011;58740;50.672;18.690;2023-01-16T08:58:39;18.50;;;9.80;;
71080;SDS011;58740;50.672;18.690;2023-01-16T09:01:07;18.20;;;8.60;;
71080;SDS011;58740;50.672;18.690;2023-01-16T09:03:34;15.10;;;6.50;;
71080;SDS011;58740;50.672;18.690;2023-01-16T09:06:02;19.20;;;8.80;;
71080;SDS011;58740;50.672;18.690;2023-01-16T09:08:30;23.40;;;10.20;;
71080;SDS011;58740;50.672;18.690;2023-01-16T09:10:58;19.00;;;8.90;;
71080;SDS011;58740;50.672;18.690;2023-01-16T09:13:44;19.40;;;9.90;;
71080;SDS011;58740;50.672;18.690;2023-01-16T09:16:21;23.70;;;10.00;;
71080;SDS011;58740;50.672;18.690;2023-01-16T09:18:51;14.90;;;7.90;;
71080;SDS011;58740;50.672;18.690;2023-01-16T09:21:20;17.90;;;9.00;;
71080;SDS011;58740;50.672;18.690;2023-01-16T09:23:51;13.50;;;6.80;;
71080;SDS011;58740;50.672;18.690;2023-01-16T09:26:19;20.30;;;10.30;;
71080;SDS011;58740;50.672;18.690;2023-01-16T09:28:47;19.80;;;9.60;;
71080;SDS011;58740;50.672;18.690;2023-01-16T09:31:15;21.40;;;9.50;;
71080;SDS011;58740;50.672;18.690;2023-01-16T09:33:43;17.40;;;8.80;;
71080;SDS011;58740;50.672;18.690;2023-01-16T09:36:11;15.10;;;8.10;;
71080;SDS011;58740;50.672;18.690;2023-01-16T09:38:39;17.90;;;8.80;;
71080;SDS011;58740;50.672;18.690;2023-01-16T09:41:13;17.70;;;9.00;;
71080;SDS011;58740;50.672;18.690;2023-01-16T09:44:04;15.10;;;7.20;;
71080;SDS011;58740;50.672;18.690;2023-01-16T09:46:40;22.40;;;11.00;;
71080;SDS011;58740;50.672;18.690;2023-01-16T09:49:21;21.20;;;11.10;;
71080;SDS011;58740;50.672;18.690;2023-01-16T09:52:06;20.90;;;10.50;;
71080;SDS011;58740;50.672;18.690;2023-01-16T09:55:03;20.80;;;9.40;;
71080;SDS011;58740;50.672;18.690;2023-01-16T09:58:05;18.70;;;9.30;;
71080;SDS011;58740;50.672;18.690;2023-01-16T10:00:59;20.20;;;9.80;;
71080;SDS011;58740;50.672;18.690;2023-01-16T10:03:28;12.40;;;5.50;;
71080;SDS011;58740;50.672;18.690;2023-01-16T10:05:58;21.30;;;10.80;;
71080;SDS011;58740;50.672;18.690;2023-01-16T10:08:42;20.30;;;10.00;;
71080;SDS011;58740;50.672;18.690;2023-01-16T10:11:50;19.00;;;9.30;;
71080;SDS011;58740;50.672;18.690;2023-01-16T10:26:59;19.20;;;8.50;;
71080;SDS011;58740;50.672;18.690;2023-01-16T10:29:33;25.60;;;10.40;;
71080;SDS011;58740;50.672;18.690;2023-01-16T10:32:18;20.80;;;8.10;;
71080;SDS011;58740;50.672;18.690;2023-01-16T10:35:17;20.80;;;8.80;;
71080;SDS011;58740;50.672;18.690;2023-01-16T10:37:51;18.70;;;7.60;;
71080;SDS011;58740;50.672;18.690;2023-01-16T10:40:24;18.60;;;7.70;;
71080;SDS011;58740;50.672;18.690;2023-01-16T10:43:06;20.70;;;9.40;;
71080;SDS011;58740;50.672;18.690;2023-01-16T10:46:10;23.00;;;9.70;;
71080;SDS011;58740;50.672;18.690;2023-01-16T10:49:18;19.20;;;8.30;;
71080;SDS011;58740;50.672;18.690;2023-01-16T10:51:57;23.40;;;10.80;;
71080;SDS011;58740;50.672;18.690;2023-01-16T10:54:27;17.00;;;7.90;;
71080;SDS011;58740;50.672;18.690;2023-01-16T10:56:55;18.20;;;7.90;;
71080;SDS011;58740;50.672;18.690;2023-01-16T10:59:26;16.70;;;8.20;;
71080;SDS011;58740;50.672;18.690;2023-01-16T11:01:56;17.00;;;9.00;;
71080;SDS011;58740;50.672;18.690;2023-01-16T11:04:35;18.70;;;8.80;;
71080;SDS011;58740;50.672;18.690;2023-01-16T11:07:15;18.80;;;8.50;;
71080;SDS011;58740;50.672;18.690;2023-01-16T11:09:46;17.90;;;7.40;;
71080;SDS011;58740;50.672;18.690;2023-01-16T11:12:28;17.10;;;7.80;;
71080;SDS011;58740;50.672;18.690;2023-01-16T11:15:22;19.40;;;9.20;;
71080;SDS011;58740;50.672;18.690;2023-01-16T11:20:59;14.70;;;8.00;;
71080;SDS011;58740;50.672;18.690;2023-01-16T11:23:48;19.70;;;9.70;;
71080;SDS011;58740;50.672;18.690;2023-01-16T11:26:16;15.00;;;7.00;;
71080;SDS011;58740;50.672;18.690;2023-01-16T11:28:48;21.50;;;9.00;;
71080;SDS011;58740;50.672;18.690;2023-01-16T11:31:24;16.20;;;7.40;;
71080;SDS011;58740;50.672;18.690;2023-01-16T11:34:01;16.40;;;7.80;;
71080;SDS011;58740;50.672;18.690;2023-01-16T11:36:37;15.30;;;6.50;;
71080;SDS011;58740;50.672;18.690;2023-01-16T11:39:06;17.50;;;7.30;;
71080;SDS011;58740;50.672;18.690;2023-01-16T11:41:52;17.70;;;7.00;;
71080;SDS011;58740;50.672;18.690;2023-01-16T11:44:26;15.80;;;6.90;;
71080;SDS011;58740;50.672;18.690;2023-01-16T11:47:18;16.10;;;7.80;;
71080;SDS011;58740;50.672;18.690;2023-01-16T11:49:51;16.40;;;7.80;;
71080;SDS011;58740;50.672;18.690;2023-01-16T11:52:22;18.50;;;8.20;;
71080;SDS011;58740;50.672;18.690;2023-01-16T11:55:03;16.20;;;6.70;;
71080;SDS011;58740;50.672;18.690;2023-01-16T11:57:52;18.40;;;6.40;;
71080;SDS011;58740;50.672;18.690;2023-01-16T12:00:34;12.30;;;5.20;;
71080;SDS011;58740;50.672;18.690;2023-01-16T12:06:47;10.30;;;5.50;;
71080;SDS011;58740;50.672;18.690;2023-01-16T12:09:37;18.10;;;6.30;;
71080;SDS011;58740;50.672;18.690;2023-01-16T12:12:33;10.60;;;5.60;;
71080;SDS011;58740;50.672;18.690;2023-01-16T12:15:36;11.20;;;4.00;;
71080;SDS011;58740;50.672;18.690;2023-01-16T12:24:26;13.40;;;5.50;;
71080;SDS011;58740;50.672;18.690;2023-01-16T12:39:28;16.00;;;5.70;;
71080;SDS011;58740;50.672;18.690;2023-01-16T12:45:57;15.00;;;5.20;;
71080;SDS011;58740;50.672;18.690;2023-01-16T12:48:37;11.50;;;4.40;;
71080;SDS011;58740;50.672;18.690;2023-01-16T12:54:15;15.60;;;4.40;;
71080;SDS011;58740;50.672;18.690;2023-01-16T12:57:51;10.30;;;3.80;;
71080;SDS011;58740;50.672;18.690;2023-01-16T13:00:28;13.60;;;5.00;;
71080;SDS011;58740;50.672;18.690;2023-01-16T13:03:26;12.60;;;6.10;;
71080;SDS011;58740;50.672;18.690;2023-01-16T13:06:02;15.40;;;4.90;;
71080;SDS011;58740;50.672;18.690;2023-01-16T13:08:44;12.70;;;4.30;;
71080;SDS011;58740;50.672;18.690;2023-01-16T13:11:32;12.60;;;4.90;;
71080;SDS011;58740;50.672;18.690;2023-01-16T13:14:33;14.70;;;6.70;;
71080;SDS011;58740;50.672;18.690;2023-01-16T13:17:24;9.50;;;4.20;;
71080;SDS011;58740;50.672;18.690;2023-01-16T13:20:01;8.90;;;3.60;;
71080;SDS011;58740;50.672;18.690;2023-01-16T13:22:43;15.40;;;6.30;;
71080;SDS011;58740;50.672;18.690;2023-01-16T13:25:35;9.50;;;3.40;;
71080;SDS011;58740;50.672;18.690;2023-01-16T13:30:53;17.40;;;5.50;;
71080;SDS011;58740;50.672;18.690;2023-01-16T13:33:28;18.60;;;7.40;;
71080;SDS011;58740;50.672;18.690;2023-01-16T13:36:29;18.80;;;6.70;;
71080;SDS011;58740;50.672;18.690;2023-01-16T13:42:24;15.20;;;5.80;;
71080;SDS011;58740;50.672;18.690;2023-01-16T13:45:02;14.00;;;6.20;;
71080;SDS011;58740;50.672;18.690;2023-01-16T13:47:56;19.80;;;8.10;;
71080;SDS011;58740;50.672;18.690;2023-01-16T13:50:27;20.90;;;8.60;;
71080;SDS011;58740;50.672;18.690;2023-01-16T13:53:01;26.10;;;9.20;;
71080;SDS011;58740;50.672;18.690;2023-01-16T13:55:39;37.20;;;15.40;;
71080;SDS011;58740;50.672;18.690;2023-01-16T13:58:15;67.10;;;26.50;;
71080;SDS011;58740;50.672;18.690;2023-01-16T14:00:56;59.70;;;25.00;;
71080;SDS011;58740;50.672;18.690;2023-01-16T14:03:33;39.40;;;16.30;;
71080;SDS011;58740;50.672;18.690;2023-01-16T14:12:01;30.00;;;13.10;;
71080;SDS011;58740;50.672;18.690;2023-01-16T14:14:49;30.30;;;10.00;;
71080;SDS011;58740;50.672;18.690;2023-01-16T14:23:36;18.50;;;8.10;;
71080;SDS011;58740;50.672;18.690;2023-01-16T14:26:51;21.40;;;8.40;;
71080;SDS011;58740;50.672;18.690;2023-01-16T14:29:28;11.90;;;5.10;;
71080;SDS011;58740;50.672;18.690;2023-01-16T14:37:17;17.80;;;7.50;;
71080;SDS011;58740;50.672;18.690;2023-01-16T14:39:53;22.10;;;9.50;;
71080;SDS011;58740;50.672;18.690;2023-01-16T14:42:40;18.70;;;8.00;;
71080;SDS011;58740;50.672;18.690;2023-01-16T14:45:41;19.40;;;8.00;;
71080;SDS011;58740;50.672;18.690;2023-01-16T14:49:38;18.70;;;6.60;;
71080;SDS011;58740;50.672;18.690;2023-01-16T14:55:41;14.50;;;6.30;;
71080;SDS011;58740;50.672;18.690;2023-01-16T14:58:22;15.50;;;6.90;;
71080;SDS011;58740;50.672;18.690;2023-01-16T15:00:58;14.40;;;7.20;;
71080;SDS011;58740;50.672;18.690;2023-01-16T15:04:05;23.80;;;10.00;;
71080;SDS011;58740;50.672;18.690;2023-01-16T15:06:38;29.50;;;13.40;;
71080;SDS011;58740;50.672;18.690;2023-01-16T15:09:14;30.60;;;13.90;;
71080;SDS011;58740;50.672;18.690;2023-01-16T15:11:59;45.10;;;17.70;;
71080;SDS011;58740;50.672;18.690;2023-01-16T15:14:29;34.50;;;15.90;;
71080;SDS011;58740;50.672;18.690;2023-01-16T15:17:26;33.60;;;13.10;;
71080;SDS011;58740;50.672;18.690;2023-01-16T15:20:26;21.70;;;10.60;;
71080;SDS011;58740;50.672;18.690;2023-01-16T15:23:33;23.70;;;10.50;;
71080;SDS011;58740;50.672;18.690;2023-01-16T15:32:11;21.80;;;10.20;;
71080;SDS011;58740;50.672;18.690;2023-01-16T15:35:13;22.10;;;10.60;;
71080;SDS011;58740;50.672;18.690;2023-01-16T15:37:53;15.80;;;8.70;;
71080;SDS011;58740;50.672;18.690;2023-01-16T15:40:28;17.50;;;8.10;;
71080;SDS011;58740;50.672;18.690;2023-01-16T15:42:57;15.60;;;7.60;;
71080;SDS011;58740;50.672;18.690;2023-01-16T15:45:55;14.50;;;6.60;;
71080;SDS011;58740;50.672;18.690;2023-01-16T15:49:00;15.20;;;7.20;;
71080;SDS011;58740;50.672;18.690;2023-01-16T15:51:58;22.40;;;10.20;;
71080;SDS011;58740;50.672;18.690;2023-01-16T15:54:26;25.60;;;11.40;;
71080;SDS011;58740;50.672;18.690;2023-01-16T15:56:54;22.10;;;10.60;;
71080;SDS011;58740;50.672;18.690;2023-01-16T15:59:30;22.70;;;10.00;;
71080;SDS011;58740;50.672;18.690;2023-01-16T16:02:24;22.60;;;10.60;;
71080;SDS011;58740;50.672;18.690;2023-01-16T16:04:59;15.70;;;7.90;;
71080;SDS011;58740;50.672;18.690;2023-01-16T16:07:28;24.80;;;11.70;;
71080;SDS011;58740;50.672;18.690;2023-01-16T16:10:00;26.90;;;11.80;;
71080;SDS011;58740;50.672;18.690;2023-01-16T16:12:30;30.20;;;12.70;;
71080;SDS011;58740;50.672;18.690;2023-01-16T16:15:19;30.60;;;12.80;;
71080;SDS011;58740;50.672;18.690;2023-01-16T16:18:15;28.00;;;12.10;;
71080;SDS011;58740;50.672;18.690;2023-01-16T16:20:48;28.90;;;12.00;;
71080;SDS011;58740;50.672;18.690;2023-01-16T16:23:20;24.80;;;11.00;;
71080;SDS011;58740;50.672;18.690;2023-01-16T16:25:55;23.30;;;11.00;;
71080;SDS011;58740;50.672;18.690;2023-01-16T16:28:43;19.20;;;9.10;;
71080;SDS011;58740;50.672;18.690;2023-01-16T16:31:22;19.10;;;8.50;;
71080;SDS011;58740;50.672;18.690;2023-01-16T16:33:58;21.30;;;11.00;;
71080;SDS011;58740;50.672;18.690;2023-01-16T16:36:54;26.70;;;11.70;;
71080;SDS011;58740;50.672;18.690;2023-01-16T16:41:54;23.70;;;12.00;;
71080;SDS011;58740;50.672;18.690;2023-01-16T16:44:45;24.40;;;12.40;;
71080;SDS011;58740;50.672;18.690;2023-01-16T16:47:31;23.20;;;12.50;;
71080;SDS011;58740;50.672;18.690;2023-01-16T16:50:00;17.20;;;9.40;;
71080;SDS011;58740;50.672;18.690;2023-01-16T16:52:34;23.90;;;13.30;;
71080;SDS011;58740;50.672;18.690;2023-01-16T16:55:25;25.70;;;13.50;;
71080;SDS011;58740;50.672;18.690;2023-01-16T16:57:57;24.40;;;14.20;;
71080;SDS011;58740;50.672;18.690;2023-01-16T17:00:28;29.40;;;14.10;;
71080;SDS011;58740;50.672;18.690;2023-01-16T17:03:05;28.30;;;14.70;;